Flight Track Log - Related Links

Times and Time Zones

All times are in EDT time to prevent confusion due to time zone crossing. See the SWA182 flight status page for this flight to view local times or setup timezone preferences in your user account.


Time Position Orientation Groundspeed Altitude Reporting Facility
EDT Latitude Longitude Course Direction KTS MPH feet Rate Location/Type
Wed 07:44:34 PM 29.6119 -98.3961 34° Northeast 229 264 4,400  Level Houston Center
Wed 07:45:37 PM 29.6789 -98.3883 North 264 304 6,700 2,112 Climbing Houston Center
Wed 07:46:39 PM 29.7111 -98.4669 295° West 293 337 8,800 2,468 Climbing Houston Center
Wed 07:47:41 PM 29.7464 -98.5600 294° West 294 338 11,800 2,806 Climbing Houston Center
Wed 07:48:43 PM 29.7806 -98.6486 294° West 304 350 14,600 2,952 Climbing Houston Center
Wed 07:49:45 PM 29.8372 -98.7317 308° West 310 357 17,900 2,129 Climbing Houston Center
Wed 07:50:47 PM 29.8922 -98.8094 309° West 315 362 19,000 1,258 Climbing Houston Center
Wed 07:51:49 PM 29.9483 -98.8900 309° West 321 369 20,500 1,306 Climbing Houston Center
Wed 07:52:51 PM 30.0156 -98.9839 310° West 358 412 21,700 1,210 Climbing Houston Center
Wed 07:53:53 PM 30.0836 -99.0825 309° West 390 449 23,000 1,548 Climbing Houston Center
Wed 07:54:55 PM 30.1511 -99.1711 311° West 405 466 24,900 1,500 Climbing Houston Center
Wed 07:55:57 PM 30.2239 -99.2950 304° West 407 468 26,100 1,008 Climbing Houston Center
Wed 07:57:00 PM 30.2614 -99.4281 288° West 436 502 27,000 432 Climbing Houston Center
Wed 07:58:02 PM 30.2936 -99.5606 286° West 433 498 27,000 726 Level Houston Center
Wed 07:59:04 PM 30.3272 -99.6925 286° West 431 496 28,500 1,790 Climbing Houston Center
Wed 08:00:06 PM 30.3608 -99.8183 287° West 415 478 30,700 1,694 Climbing Houston Center
Wed 08:01:08 PM 30.3992 -99.9706 286° West 416 479 32,000 629 Climbing Houston Center
Wed 08:02:10 PM 30.4322 -100.0967 287° West 409 471 32,000  Level Houston Center
Wed 08:03:12 PM 30.4633 -100.2253 286° West 416 479 32,000  Level Houston Center
Wed 08:04:15 PM 30.4936 -100.3478 286° West 396 456 32,000  Level Houston Center
Wed 08:05:16 PM 30.5233 -100.4675 286° West 387 445 32,000  Level Houston Center
Wed 08:06:18 PM 30.5603 -100.6133 286° West 394 453 32,000 290 Level Houston Center
Wed 08:07:20 PM 30.5897 -100.7381 285° West 399 459 32,600 919 Climbing Houston Center
Wed 08:08:22 PM 30.6183 -100.8622 285° West 401 461 33,900 1,548 Climbing Houston Center
Wed 08:09:24 PM 30.6506 -100.9814 287° West 387 445 35,800 1,597 Climbing Houston Center
Wed 08:10:26 PM 30.6786 -101.1014 285° West 373 429 37,200 1,065 Climbing Houston Center
Wed 08:11:28 PM 30.7081 -101.2192 286° West 377 434 38,000 387 Climbing Houston Center
Wed 08:12:30 PM 30.7417 -101.3636 285° West 385 443 38,000  Level Houston Center
Wed 08:13:33 PM 30.7714 -101.4856 286° West 388 447 38,000  Level Houston Center
Wed 08:14:35 PM 30.7967 -101.6033 284° West 381 438 38,000  Level Houston Center
Wed 08:15:37 PM 30.8272 -101.7189 287° West 377 434 38,000  Level Houston Center
Wed 08:16:39 PM 30.8553 -101.8389 285° West 380 437 38,000  Level Houston Center
Wed 08:17:41 PM 30.8878 -101.9836 285° West 382 440 38,000  Level Houston Center
Wed 08:18:43 PM 30.9156 -102.1047 285° West 384 442 38,000  Level Houston Center
Wed 08:19:05 PM 30.9275 -102.1531 286° West 386 444 38,000  Level Albuquerque Center
Wed 08:20:07 PM 30.9553 -102.2736 285° West 384 442 38,000  Level Albuquerque Center
Wed 08:21:09 PM 30.9833 -102.3947 285° West 384 442 38,000  Level Albuquerque Center
Wed 08:22:10 PM 31.0103 -102.5072 286° West 382 440 38,000  Level Albuquerque Center
Wed 08:23:12 PM 31.0453 -102.6319 288° West 380 437 38,000  Level Albuquerque Center
Wed 08:24:14 PM 31.0789 -102.7497 288° West 379 436 38,000  Level Albuquerque Center
Wed 08:25:15 PM 31.1117 -102.8681 288° West 382 440 38,000  Level Albuquerque Center
Wed 08:26:17 PM 31.1444 -102.9869 288° West 384 442 38,000  Level Albuquerque Center
Wed 08:27:19 PM 31.1778 -103.1047 288° West 383 441 38,000 -48 Level Albuquerque Center
Wed 08:28:21 PM 31.2158 -103.2453 288° West 380 437 37,900  Descending Albuquerque Center
Wed 08:29:22 PM 31.2483 -103.3606 288° West 376 433 38,000 49 Climbing Albuquerque Center
Wed 08:30:24 PM 31.2794 -103.4744 288° West 371 427 38,000  Level Albuquerque Center
Wed 08:31:26 PM 31.3097 -103.5878 287° West 368 423 38,000  Level Albuquerque Center
Wed 08:32:27 PM 31.3425 -103.7022 289° West 370 426 38,000  Level Albuquerque Center
Wed 08:33:29 PM 31.3725 -103.8133 288° West 372 428 38,000  Level Albuquerque Center
Wed 08:34:30 PM 31.4103 -103.9525 288° West 375 432 38,000  Level Albuquerque Center
Wed 08:35:32 PM 31.4428 -104.0711 288° West 381 438 38,000  Level Albuquerque Center
Wed 08:37:35 PM 31.5067 -104.3056 288° West 383 441 38,000  Level Albuquerque Center
Wed 08:38:37 PM 31.5386 -104.4261 287° West 388 447 38,000  Level Albuquerque Center
Wed 08:39:38 PM 31.5697 -104.5439 287° West 384 442 38,000 -49 Level Albuquerque Center
Wed 08:40:40 PM 31.6014 -104.6639 287° West 387 445 37,900  Descending Albuquerque Center
Wed 08:41:42 PM 31.6400 -104.8069 288° West 386 444 38,000 49 Climbing Albuquerque Center
Wed 08:42:43 PM 31.6697 -104.9214 287° West 375 432 38,000  Level Albuquerque Center
Wed 08:43:45 PM 31.7014 -105.0403 287° West 380 437 38,000  Level Albuquerque Center
Wed 08:44:46 PM 31.7328 -105.1589 287° West 383 441 38,000  Level Albuquerque Center
Wed 08:45:48 PM 31.7631 -105.2775 287° West 382 440 38,000  Level Albuquerque Center
Wed 08:46:49 PM 31.7931 -105.3997 286° West 389 448 38,000  Level Albuquerque Center
Wed 08:47:51 PM 31.8236 -105.5189 287° West 385 443 38,000  Level Albuquerque Center
Wed 08:48:52 PM 31.8606 -105.6617 287° West 382 440 38,000  Level Albuquerque Center
Wed 08:49:54 PM 31.8914 -105.7822 287° West 385 443 38,000  Level Albuquerque Center
Wed 08:50:56 PM 31.9222 -105.9033 287° West 387 445 38,000  Level Albuquerque Center
Wed 08:51:57 PM 31.9536 -106.0258 287° West 388 447 38,000  Level Albuquerque Center
Wed 08:52:59 PM 31.9842 -106.1464 287° West 386 444 38,000  Level Albuquerque Center
Wed 08:54:00 PM 32.0147 -106.2658 287° West 383 441 38,000  Level Albuquerque Center
Wed 08:55:02 PM 32.0453 -106.3867 287° West 385 443 38,000  Level Albuquerque Center
Wed 08:56:03 PM 32.0742 -106.5075 286° West 383 441 38,000  Level Albuquerque Center
Wed 08:57:05 PM 32.1108 -106.6533 287° West 386 444 38,000  Level Albuquerque Center
Wed 08:58:07 PM 32.1403 -106.7750 286° West 385 443 38,000  Level Albuquerque Center
Wed 08:59:08 PM 32.1703 -106.8958 286° West 384 442 38,000  Level Albuquerque Center
Wed 09:00:10 PM 32.2014 -107.0261 286° West 378 435 38,000  Level Albuquerque Center
Wed 09:01:11 PM 32.2308 -107.1444 286° West 377 434 38,000  Level Albuquerque Center
Wed 09:02:13 PM 32.2544 -107.2553 284° West 381 438 38,000  Level Albuquerque Center
Wed 09:03:14 PM 32.2819 -107.3742 285° West 381 438 38,000  Level Albuquerque Center
Wed 09:04:16 PM 32.3167 -107.5183 286° West 382 440 38,000  Level Albuquerque Center
Wed 09:05:18 PM 32.3411 -107.6219 286° West 381 438 38,000  Level Albuquerque Center
Wed 09:06:19 PM 32.3703 -107.7433 286° West 382 440 38,000  Level Albuquerque Center
Wed 09:07:21 PM 32.4042 -107.8883 286° West 382 440 38,000  Level Albuquerque Center
Wed 09:08:22 PM 32.4331 -108.0094 286° West 382 440 38,000  Level Albuquerque Center
Wed 09:09:24 PM 32.4578 -108.1181 285° West 383 441 38,000  Level Albuquerque Center
Wed 09:10:26 PM 32.4861 -108.2378 286° West 381 438 38,000  Level Albuquerque Center
Wed 09:11:27 PM 32.5197 -108.3828 285° West 381 438 38,000  Level Albuquerque Center
Wed 09:12:29 PM 32.5472 -108.5028 285° West 380 437 38,000  Level Albuquerque Center
Wed 09:13:30 PM 32.5747 -108.6236 285° West 381 438 38,000  Level Albuquerque Center
Wed 09:14:32 PM 32.6017 -108.7447 285° West 381 438 38,000  Level Albuquerque Center
Wed 09:15:34 PM 32.6294 -108.8647 285° West 380 437 38,000  Level Albuquerque Center
Wed 09:16:35 PM 32.6558 -108.9858 285° West 379 436 38,000  Level Albuquerque Center
Wed 09:17:37 PM 32.6833 -109.1078 285° West 380 437 38,000  Level Albuquerque Center
Wed 09:18:38 PM 32.7167 -109.2536 285° West 381 438 38,000  Level Albuquerque Center
Wed 09:19:40 PM 32.7433 -109.3753 285° West 382 440 38,000  Level Albuquerque Center
Wed 09:20:41 PM 32.7703 -109.4975 285° West 383 441 38,000  Level Albuquerque Center
Wed 09:21:43 PM 32.7969 -109.6194 285° West 383 441 38,000  Level Albuquerque Center
Wed 09:22:44 PM 32.8231 -109.7419 284° West 384 442 38,000  Level Albuquerque Center
Wed 09:23:46 PM 32.8500 -109.8644 285° West 386 444 38,000  Level Albuquerque Center
Wed 09:24:47 PM 32.8767 -109.9875 284° West 386 444 38,000  Level Albuquerque Center
Wed 09:25:49 PM 32.9114 -110.1369 286° West 393 452 38,000  Level Albuquerque Center
Wed 09:26:50 PM 32.9378 -110.2589 284° West 387 445 38,000  Level Albuquerque Center
Wed 09:27:52 PM 32.9625 -110.3836 283° West 389 448 38,000  Level Albuquerque Center
Wed 09:28:53 PM 32.9897 -110.5061 285° West 387 445 38,000  Level Albuquerque Center
Wed 09:29:55 PM 33.0147 -110.6300 284° West 388 447 38,000  Level Albuquerque Center
Wed 09:30:56 PM 33.0436 -110.7547 285° West 389 448 38,000  Level Albuquerque Center
Wed 09:31:58 PM 33.0692 -110.8825 283° West 393 452 38,000  Level Albuquerque Center
Wed 09:32:59 PM 33.1003 -111.0328 284° West 389 448 38,000  Level Albuquerque Center
Wed 09:34:00 PM 33.1267 -111.1606 284° West 395 455 38,000  Level Albuquerque Center
Wed 09:35:02 PM 33.1522 -111.2889 283° West 398 458 38,000  Level Albuquerque Center
Wed 09:36:03 PM 33.1778 -111.4164 284° West 396 456 38,000  Level Albuquerque Center
Wed 09:37:04 PM 33.2036 -111.5453 284° West 398 458 38,000  Level Albuquerque Center
Wed 09:38:06 PM 33.2369 -111.6719 287° West 401 461 38,000  Level Albuquerque Center
Wed 09:39:07 PM 33.2750 -111.7967 290° West 402 463 38,000  Level Albuquerque Center
Wed 09:40:09 PM 33.3114 -111.9211 289° West 398 458 38,000  Level Albuquerque Center
Wed 09:41:10 PM 33.3492 -112.0442 290° West 394 453 38,000  Level Albuquerque Center
Wed 09:42:11 PM 33.3861 -112.1678 290° West 394 453 38,000  Level Albuquerque Center
Wed 09:43:13 PM 33.4231 -112.2942 289° West 398 458 38,000  Level Albuquerque Center
Wed 09:44:14 PM 33.4669 -112.4436 289° West 395 455 38,000  Level Albuquerque Center
Wed 09:45:15 PM 33.5031 -112.5683 289° West 395 455 38,000  Level Albuquerque Center
Wed 09:46:17 PM 33.5389 -112.6886 290° West 397 457 38,000  Level Albuquerque Center
Wed 09:47:18 PM 33.5753 -112.8139 289° West 400 460 38,000  Level Albuquerque Center
Wed 09:48:19 PM 33.6119 -112.9394 289° West 400 460 38,000  Level Albuquerque Center
Wed 09:49:21 PM 33.6511 -113.0733 289° West 404 465 38,000  Level Albuquerque Center
Wed 09:50:22 PM 33.6864 -113.1994 289° West 400 460 38,000  Level Albuquerque Center
Wed 09:51:23 PM 33.7239 -113.3269 290° West 402 463 38,000  Level Albuquerque Center
Wed 09:52:25 PM 33.7600 -113.4536 289° West 402 463 38,000  Level Albuquerque Center
Wed 09:53:26 PM 33.7956 -113.5808 289° West 402 463 38,000  Level Albuquerque Center
Wed 09:54:27 PM 33.8383 -113.7328 289° West 400 460 38,000  Level Albuquerque Center
Wed 09:55:28 PM 33.8747 -113.8594 289° West 401 461 38,000  Level Albuquerque Center
Wed 09:56:13 PM 33.8975 -113.9400 289° West 404 465 38,000  Level Los Angeles Center
Wed 09:57:15 PM 33.9161 -114.0711 280° West 404 465 38,000  Level Los Angeles Center
Wed 09:58:17 PM 33.9347 -114.2281 278° West 397 457 38,000  Level Los Angeles Center
Wed 09:59:18 PM 33.9517 -114.3586 279° West 396 456 38,000  Level Los Angeles Center
Wed 10:00:20 PM 33.9664 -114.4897 278° West 396 456 38,000  Level Los Angeles Center
Wed 10:01:34 PM 33.9819 -114.6206 278° West 397 457 38,000  Level Los Angeles Center
Wed 10:02:36 PM 34.0006 -114.7789 278° West 399 459 38,000  Level Los Angeles Center
Wed 10:03:38 PM 34.0169 -114.9097 279° West 398 458 38,000  Level Los Angeles Center
Wed 10:04:39 PM 34.0350 -115.0689 278° West 400 460 38,000  Level Los Angeles Center
Wed 10:05:41 PM 34.0492 -115.2008 277° West 398 458 38,000  Level Los Angeles Center
Wed 10:06:43 PM 34.0650 -115.3353 278° West 405 466 38,000  Level Los Angeles Center
Wed 10:07:45 PM 34.0797 -115.4675 278° West 401 461 38,000  Level Los Angeles Center
Wed 10:08:46 PM 34.0942 -115.6008 277° West 402 463 38,000  Level Los Angeles Center
Wed 10:09:48 PM 34.1092 -115.7347 278° West 404 465 38,000  Level Los Angeles Center
Wed 10:10:50 PM 34.0983 -115.8653 264° West 397 457 38,000  Level Los Angeles Center
Wed 10:11:52 PM 34.0750 -116.0222 260° West 396 456 38,000 -1,024 Level Los Angeles Center
Wed 10:12:53 PM 34.0564 -116.1528 260° West 397 457 35,900 -2,732 Descending Los Angeles Center
Wed 10:13:55 PM 34.0347 -116.2861 259° West 400 460 32,400 -3,387 Descending Los Angeles Center
Wed 10:14:57 PM 34.0147 -116.4253 260° West 412 474 28,900 -2,903 Descending Los Angeles Center
Wed 10:15:59 PM 33.9992 -116.5656 262° West 421 484 26,400 -2,146 Descending Los Angeles Center
Wed 10:17:00 PM 33.9878 -116.7025 264° West 417 480 24,500 -2,354 Descending Los Angeles Center
Wed 10:18:09 PM 33.9667 -116.8833 262° West 382 440 21,300 -2,585 Descending Southern California TRACON
Wed 10:19:10 PM 33.9667 -117.0000 270° West 373 429 18,900 -2,243 Descending Southern California TRACON
Wed 10:20:04 PM 33.9500 -117.1167 260° West 381 438 17,000 -1,148 Descending Southern California TRACON
Wed 10:21:05 PM 33.9500 -117.2500 270° West 378 435 16,700 -1,190 Descending Southern California TRACON
Wed 10:22:05 PM 33.9333 -117.3667 260° West 360 414 14,600 -1,810 Descending Southern California TRACON
Wed 10:23:11 PM 33.9667 -117.4833 289° West 329 379 12,900 -1,650 Descending Southern California TRACON
Wed 10:24:05 PM 34.0000 -117.5667 296° West 309 356 11,300 -1,596 Descending Southern California TRACON
Wed 10:25:00 PM 34.0333 -117.6500 296° West 342 394 10,000 -1,140 Descending Southern California TRACON
Wed 10:26:06 PM 34.0167 -117.7667 260° West 286 329 9,000 -1,143 Descending Southern California TRACON
Wed 10:27:06 PM 34.0000 -117.8667 259° West 282 325 7,600 -1,238 Descending Southern California TRACON
Wed 10:28:12 PM 34.0000 -117.9667 270° West 262 302 6,400 -950 Descending Southern California TRACON
Wed 10:29:06 PM 33.9833 -118.0333 253° West 238 274 5,700 -842 Descending Southern California TRACON
Wed 10:30:06 PM 33.9833 -118.1167 270° West 228 262 4,800 -923 Descending Southern California TRACON
Wed 10:30:37 PM 33.9778 -118.1494 258° West 238 274 4,300 -1,109 Descending Los Angeles Center
Wed 10:31:38 PM 33.9717 -118.2197 264° West 226 260 3,100 -978 Descending Los Angeles Center
Wed 10:32:52 PM 33.9644 -118.2819 262° West 207 238 2,100 -838 Descending Los Angeles Center
Wed 10:33:54 PM 33.9589 -118.3372 263° West 161 185 1,200 -774 Descending Los Angeles Center
Wed 10:34:56 PM 33.9556 -118.3803 265° West 141 162 500 -435 Descending Los Angeles Center
Wed 10:35:58 PM 33.9511 -118.4272 264° West 135 155 300 -194 Descending Los Angeles Center
Wed 10:37:00 PM 33.9425 -118.4081 140° Southeast  Level Estimated

Login

Don't have an account? Register now (free) for customized features, flight alerts, and more!